Adair, Illinois
Current Conditions -  °F | °C
As of 10:35 AM on Saturday 20 Dec 2014 (Local Time) from KMQB Reporting Station
Haze Haze  
Wind Chill: 25°   Ceiling: 3000
Heat Index: 33°   Visibility: 4mi
Dew Point: 30°   Wind: 9mph
Humidity: 89%   Direction: 160°SSE
Pressure: 30.28"   Gusts: NA
Location:  40.42°N, 90.5°W
Report Text: KMQB 201635Z AUTO 16008KT 4SM BR SCT012 OVC030 00/M01 A3028 RMK AO2 T00041012
Loading
Personal Weather Stations






























Interactive Weather Map New forecast layout! Learn more

10-Day Weather Forecast

Advertisements
Track Severe Weather on mobile